sensor_id;sensor_type;location;lat;lon;timestamp;P1;durP1;ratioP1;P2;durP2;ratioP2
29344;SDS011;16339;48.748;2.222;2023-04-03T00:00:06;29.98;;;16.25;;
29344;SDS011;16339;48.748;2.222;2023-04-03T00:02:36;30.27;;;15.85;;
29344;SDS011;16339;48.748;2.222;2023-04-03T00:05:08;28.55;;;14.05;;
29344;SDS011;16339;48.748;2.222;2023-04-03T00:07:37;25.90;;;14.35;;
29344;SDS011;16339;48.748;2.222;2023-04-03T00:10:06;23.50;;;14.20;;
29344;SDS011;16339;48.748;2.222;2023-04-03T00:12:36;24.48;;;14.45;;
29344;SDS011;16339;48.748;2.222;2023-04-03T00:15:06;24.50;;;14.75;;
29344;SDS011;16339;48.748;2.222;2023-04-03T00:17:35;28.17;;;14.50;;
29344;SDS011;16339;48.748;2.222;2023-04-03T00:20:04;30.08;;;14.52;;
29344;SDS011;16339;48.748;2.222;2023-04-03T00:22:36;28.05;;;14.27;;
29344;SDS011;16339;48.748;2.222;2023-04-03T00:25:05;29.27;;;14.80;;
29344;SDS011;16339;48.748;2.222;2023-04-03T00:27:35;27.85;;;15.23;;
29344;SDS011;16339;48.748;2.222;2023-04-03T00:30:05;28.45;;;16.65;;
29344;SDS011;16339;48.748;2.222;2023-04-03T00:32:35;35.17;;;16.83;;
29344;SDS011;16339;48.748;2.222;2023-04-03T00:35:05;38.58;;;17.38;;
29344;SDS011;16339;48.748;2.222;2023-04-03T00:37:36;31.58;;;17.48;;
29344;SDS011;16339;48.748;2.222;2023-04-03T00:40:06;38.30;;;17.02;;
29344;SDS011;16339;48.748;2.222;2023-04-03T00:42:36;33.67;;;17.57;;
29344;SDS011;16339;48.748;2.222;2023-04-03T00:47:54;33.35;;;16.63;;
29344;SDS011;16339;48.748;2.222;2023-04-03T00:50:27;29.92;;;16.17;;
29344;SDS011;16339;48.748;2.222;2023-04-03T00:52:57;33.33;;;16.30;;
29344;SDS011;16339;48.748;2.222;2023-04-03T00:55:26;31.80;;;16.20;;
29344;SDS011;16339;48.748;2.222;2023-04-03T00:57:55;27.60;;;15.63;;
29344;SDS011;16339;48.748;2.222;2023-04-03T01:00:25;29.42;;;15.13;;
29344;SDS011;16339;48.748;2.222;2023-04-03T01:02:54;33.53;;;16.38;;
29344;SDS011;16339;48.748;2.222;2023-04-03T01:05:23;30.98;;;15.57;;
29344;SDS011;16339;48.748;2.222;2023-04-03T01:07:55;31.45;;;15.32;;
29344;SDS011;16339;48.748;2.222;2023-04-03T01:10:25;31.45;;;15.93;;
29344;SDS011;16339;48.748;2.222;2023-04-03T01:12:54;28.83;;;15.43;;
29344;SDS011;16339;48.748;2.222;2023-04-03T01:15:24;32.80;;;16.40;;
29344;SDS011;16339;48.748;2.222;2023-04-03T01:17:55;26.60;;;15.60;;
29344;SDS011;16339;48.748;2.222;2023-04-03T01:23:44;34.58;;;16.77;;
29344;SDS011;16339;48.748;2.222;2023-04-03T01:26:22;27.00;;;15.50;;
29344;SDS011;16339;48.748;2.222;2023-04-03T01:28:50;39.50;;;16.73;;
29344;SDS011;16339;48.748;2.222;2023-04-03T01:31:22;33.92;;;16.67;;
29344;SDS011;16339;48.748;2.222;2023-04-03T01:33:57;32.42;;;16.15;;
29344;SDS011;16339;48.748;2.222;2023-04-03T01:36:27;35.35;;;18.38;;
29344;SDS011;16339;48.748;2.222;2023-04-03T01:38:57;32.83;;;17.17;;
29344;SDS011;16339;48.748;2.222;2023-04-03T01:41:27;32.22;;;16.38;;
29344;SDS011;16339;48.748;2.222;2023-04-03T01:43:56;29.65;;;15.98;;
29344;SDS011;16339;48.748;2.222;2023-04-03T01:46:25;35.13;;;16.98;;
29344;SDS011;16339;48.748;2.222;2023-04-03T01:48:54;28.27;;;17.02;;
29344;SDS011;16339;48.748;2.222;2023-04-03T01:51:25;34.78;;;16.73;;
29344;SDS011;16339;48.748;2.222;2023-04-03T01:53:54;31.75;;;15.75;;
29344;SDS011;16339;48.748;2.222;2023-04-03T01:56:22;28.77;;;16.60;;
29344;SDS011;16339;48.748;2.222;2023-04-03T01:58:51;36.72;;;16.23;;
29344;SDS011;16339;48.748;2.222;2023-04-03T02:01:20;31.58;;;16.05;;
29344;SDS011;16339;48.748;2.222;2023-04-03T02:03:50;35.67;;;16.77;;
29344;SDS011;16339;48.748;2.222;2023-04-03T02:06:22;35.53;;;17.17;;
29344;SDS011;16339;48.748;2.222;2023-04-03T02:11:19;31.15;;;15.40;;
29344;SDS011;16339;48.748;2.222;2023-04-03T02:13:48;33.20;;;16.25;;
29344;SDS011;16339;48.748;2.222;2023-04-03T02:16:16;32.90;;;16.27;;
29344;SDS011;16339;48.748;2.222;2023-04-03T02:18:45;29.88;;;15.63;;
29344;SDS011;16339;48.748;2.222;2023-04-03T02:21:15;31.23;;;16.25;;
29344;SDS011;16339;48.748;2.222;2023-04-03T02:23:46;29.23;;;15.27;;
29344;SDS011;16339;48.748;2.222;2023-04-03T02:26:15;34.05;;;15.68;;
29344;SDS011;16339;48.748;2.222;2023-04-03T02:28:44;29.92;;;16.40;;
29344;SDS011;16339;48.748;2.222;2023-04-03T02:31:13;32.63;;;17.25;;
29344;SDS011;16339;48.748;2.222;2023-04-03T02:33:42;36.05;;;17.92;;
29344;SDS011;16339;48.748;2.222;2023-04-03T02:36:11;35.50;;;18.02;;
29344;SDS011;16339;48.748;2.222;2023-04-03T02:38:45;34.53;;;18.17;;
29344;SDS011;16339;48.748;2.222;2023-04-03T02:41:14;36.50;;;17.48;;
29344;SDS011;16339;48.748;2.222;2023-04-03T02:43:43;34.65;;;17.80;;
29344;SDS011;16339;48.748;2.222;2023-04-03T02:46:11;31.20;;;17.02;;
29344;SDS011;16339;48.748;2.222;2023-04-03T02:48:41;38.47;;;17.27;;
29344;SDS011;16339;48.748;2.222;2023-04-03T02:51:09;34.40;;;18.48;;
29344;SDS011;16339;48.748;2.222;2023-04-03T02:53:38;33.45;;;17.75;;
29344;SDS011;16339;48.748;2.222;2023-04-03T02:56:09;34.92;;;18.17;;
29344;SDS011;16339;48.748;2.222;2023-04-03T02:58:38;35.63;;;17.50;;
29344;SDS011;16339;48.748;2.222;2023-04-03T03:01:07;33.38;;;17.30;;
29344;SDS011;16339;48.748;2.222;2023-04-03T03:03:35;32.03;;;18.65;;
29344;SDS011;16339;48.748;2.222;2023-04-03T03:06:05;30.70;;;17.60;;
29344;SDS011;16339;48.748;2.222;2023-04-03T03:08:35;28.73;;;16.57;;
29344;SDS011;16339;48.748;2.222;2023-04-03T03:11:04;32.30;;;16.77;;
29344;SDS011;16339;48.748;2.222;2023-04-03T03:13:36;34.30;;;17.70;;
29344;SDS011;16339;48.748;2.222;2023-04-03T03:16:05;35.20;;;17.20;;
29344;SDS011;16339;48.748;2.222;2023-04-03T03:18:35;31.70;;;16.23;;
29344;SDS011;16339;48.748;2.222;2023-04-03T03:21:04;28.13;;;16.25;;
29344;SDS011;16339;48.748;2.222;2023-04-03T03:23:32;32.20;;;16.15;;
29344;SDS011;16339;48.748;2.222;2023-04-03T03:26:02;37.17;;;17.17;;
29344;SDS011;16339;48.748;2.222;2023-04-03T03:28:32;28.42;;;15.73;;
29344;SDS011;16339;48.748;2.222;2023-04-03T03:31:05;35.60;;;16.48;;
29344;SDS011;16339;48.748;2.222;2023-04-03T03:33:35;33.78;;;16.88;;
29344;SDS011;16339;48.748;2.222;2023-04-03T03:36:04;31.48;;;15.50;;
29344;SDS011;16339;48.748;2.222;2023-04-03T03:38:33;29.38;;;15.80;;
29344;SDS011;16339;48.748;2.222;2023-04-03T03:41:02;27.10;;;15.10;;
29344;SDS011;16339;48.748;2.222;2023-04-03T03:43:30;27.20;;;14.65;;
29344;SDS011;16339;48.748;2.222;2023-04-03T03:46:02;28.70;;;14.38;;
29344;SDS011;16339;48.748;2.222;2023-04-03T03:48:30;24.52;;;15.05;;
29344;SDS011;16339;48.748;2.222;2023-04-03T03:50:59;26.42;;;15.30;;
29344;SDS011;16339;48.748;2.222;2023-04-03T03:53:28;26.15;;;13.88;;
29344;SDS011;16339;48.748;2.222;2023-04-03T03:55:56;30.48;;;15.75;;
29344;SDS011;16339;48.748;2.222;2023-04-03T03:58:25;26.13;;;14.70;;
29344;SDS011;16339;48.748;2.222;2023-04-03T04:00:54;27.83;;;14.55;;
29344;SDS011;16339;48.748;2.222;2023-04-03T04:03:25;25.30;;;15.48;;
29344;SDS011;16339;48.748;2.222;2023-04-03T04:05:54;23.17;;;12.88;;
29344;SDS011;16339;48.748;2.222;2023-04-03T04:08:22;23.05;;;14.13;;
29344;SDS011;16339;48.748;2.222;2023-04-03T04:10:51;20.85;;;13.02;;
29344;SDS011;16339;48.748;2.222;2023-04-03T04:13:20;25.98;;;14.02;;
29344;SDS011;16339;48.748;2.222;2023-04-03T04:15:49;23.92;;;14.20;;
29344;SDS011;16339;48.748;2.222;2023-04-03T04:18:18;23.55;;;13.70;;
29344;SDS011;16339;48.748;2.222;2023-04-03T04:20:51;30.13;;;12.88;;
29344;SDS011;16339;48.748;2.222;2023-04-03T04:23:20;25.55;;;13.82;;
29344;SDS011;16339;48.748;2.222;2023-04-03T04:25:48;25.17;;;12.80;;
29344;SDS011;16339;48.748;2.222;2023-04-03T04:28:17;22.63;;;13.18;;
29344;SDS011;16339;48.748;2.222;2023-04-03T04:30:46;23.05;;;13.02;;
29344;SDS011;16339;48.748;2.222;2023-04-03T04:33:15;23.02;;;12.93;;
29344;SDS011;16339;48.748;2.222;2023-04-03T04:35:44;22.20;;;12.30;;
29344;SDS011;16339;48.748;2.222;2023-04-03T04:38:17;25.33;;;12.45;;
29344;SDS011;16339;48.748;2.222;2023-04-03T04:40:46;25.33;;;12.18;;
29344;SDS011;16339;48.748;2.222;2023-04-03T04:43:15;22.60;;;12.43;;
29344;SDS011;16339;48.748;2.222;2023-04-03T04:45:46;21.27;;;12.40;;
29344;SDS011;16339;48.748;2.222;2023-04-03T04:48:15;24.15;;;12.40;;
29344;SDS011;16339;48.748;2.222;2023-04-03T04:50:44;20.50;;;11.80;;
29344;SDS011;16339;48.748;2.222;2023-04-03T04:53:12;25.33;;;12.73;;
29344;SDS011;16339;48.748;2.222;2023-04-03T04:55:43;21.42;;;11.50;;
29344;SDS011;16339;48.748;2.222;2023-04-03T04:58:13;24.42;;;12.05;;
29344;SDS011;16339;48.748;2.222;2023-04-03T05:00:41;22.85;;;11.35;;
29344;SDS011;16339;48.748;2.222;2023-04-03T05:03:10;22.05;;;12.48;;
29344;SDS011;16339;48.748;2.222;2023-04-03T05:05:39;23.27;;;12.38;;
29344;SDS011;16339;48.748;2.222;2023-04-03T05:08:08;23.50;;;11.75;;
29344;SDS011;16339;48.748;2.222;2023-04-03T05:10:37;19.77;;;11.68;;
29344;SDS011;16339;48.748;2.222;2023-04-03T05:13:09;22.27;;;11.43;;
29344;SDS011;16339;48.748;2.222;2023-04-03T05:15:38;19.33;;;11.55;;
29344;SDS011;16339;48.748;2.222;2023-04-03T05:18:07;19.58;;;11.20;;
29344;SDS011;16339;48.748;2.222;2023-04-03T05:20:35;22.90;;;11.38;;
29344;SDS011;16339;48.748;2.222;2023-04-03T05:23:04;18.77;;;11.45;;
29344;SDS011;16339;48.748;2.222;2023-04-03T05:25:33;20.55;;;11.27;;
29344;SDS011;16339;48.748;2.222;2023-04-03T05:28:02;22.38;;;11.10;;
29344;SDS011;16339;48.748;2.222;2023-04-03T05:30:33;21.95;;;10.80;;
29344;SDS011;16339;48.748;2.222;2023-04-03T05:33:02;24.02;;;11.07;;
29344;SDS011;16339;48.748;2.222;2023-04-03T05:35:31;24.75;;;10.98;;
29344;SDS011;16339;48.748;2.222;2023-04-03T05:38:00;20.55;;;10.57;;
29344;SDS011;16339;48.748;2.222;2023-04-03T05:40:28;18.90;;;11.10;;
29344;SDS011;16339;48.748;2.222;2023-04-03T05:42:57;22.50;;;11.43;;
29344;SDS011;16339;48.748;2.222;2023-04-03T05:45:26;20.15;;;10.32;;
29344;SDS011;16339;48.748;2.222;2023-04-03T05:47:57;17.98;;;9.95;;
29344;SDS011;16339;48.748;2.222;2023-04-03T05:50:26;20.33;;;11.02;;
29344;SDS011;16339;48.748;2.222;2023-04-03T05:52:56;19.17;;;11.40;;
29344;SDS011;16339;48.748;2.222;2023-04-03T05:55:25;21.60;;;11.03;;
29344;SDS011;16339;48.748;2.222;2023-04-03T05:57:54;21.00;;;11.15;;
29344;SDS011;16339;48.748;2.222;2023-04-03T06:00:23;21.20;;;11.32;;
29344;SDS011;16339;48.748;2.222;2023-04-03T06:02:52;19.45;;;10.82;;
29344;SDS011;16339;48.748;2.222;2023-04-03T06:05:24;18.73;;;11.05;;
29344;SDS011;16339;48.748;2.222;2023-04-03T06:10:22;18.95;;;10.18;;
29344;SDS011;16339;48.748;2.222;2023-04-03T06:12:51;17.77;;;10.30;;
29344;SDS011;16339;48.748;2.222;2023-04-03T06:15:20;26.02;;;10.15;;
29344;SDS011;16339;48.748;2.222;2023-04-03T06:17:49;21.13;;;11.32;;
29344;SDS011;16339;48.748;2.222;2023-04-03T06:20:18;19.35;;;10.60;;
29344;SDS011;16339;48.748;2.222;2023-04-03T06:22:49;17.45;;;10.55;;
29344;SDS011;16339;48.748;2.222;2023-04-03T06:25:18;19.35;;;10.80;;
29344;SDS011;16339;48.748;2.222;2023-04-03T06:27:47;19.67;;;11.15;;
29344;SDS011;16339;48.748;2.222;2023-04-03T06:30:16;21.60;;;10.85;;
29344;SDS011;16339;48.748;2.222;2023-04-03T06:32:45;18.67;;;10.90;;
29344;SDS011;16339;48.748;2.222;2023-04-03T06:35:13;25.27;;;11.20;;
29344;SDS011;16339;48.748;2.222;2023-04-03T06:37:42;26.40;;;11.52;;
29344;SDS011;16339;48.748;2.222;2023-04-03T06:40:15;17.83;;;11.05;;
29344;SDS011;16339;48.748;2.222;2023-04-03T06:42:48;20.58;;;11.50;;
29344;SDS011;16339;48.748;2.222;2023-04-03T06:45:17;20.63;;;10.63;;
29344;SDS011;16339;48.748;2.222;2023-04-03T06:47:46;19.25;;;10.60;;
29344;SDS011;16339;48.748;2.222;2023-04-03T06:50:15;27.15;;;11.23;;
29344;SDS011;16339;48.748;2.222;2023-04-03T06:52:44;21.67;;;11.45;;
29344;SDS011;16339;48.748;2.222;2023-04-03T06:55:16;16.05;;;9.50;;
29344;SDS011;16339;48.748;2.222;2023-04-03T07:00:13;15.93;;;9.82;;
29344;SDS011;16339;48.748;2.222;2023-04-03T07:02:43;18.02;;;9.98;;
29344;SDS011;16339;48.748;2.222;2023-04-03T07:05:12;21.27;;;10.93;;
29344;SDS011;16339;48.748;2.222;2023-04-03T07:07:41;19.20;;;11.52;;
29344;SDS011;16339;48.748;2.222;2023-04-03T07:10:10;17.00;;;10.77;;
29344;SDS011;16339;48.748;2.222;2023-04-03T07:12:41;25.42;;;11.20;;
29344;SDS011;16339;48.748;2.222;2023-04-03T07:17:39;21.55;;;11.05;;
29344;SDS011;16339;48.748;2.222;2023-04-03T07:20:09;96.13;;;14.52;;
29344;SDS011;16339;48.748;2.222;2023-04-03T07:22:38;324.40;;;21.90;;
29344;SDS011;16339;48.748;2.222;2023-04-03T07:25:07;16.67;;;10.95;;
29344;SDS011;16339;48.748;2.222;2023-04-03T07:27:36;17.38;;;10.13;;
29344;SDS011;16339;48.748;2.222;2023-04-03T07:30:08;18.10;;;11.40;;
29344;SDS011;16339;48.748;2.222;2023-04-03T07:32:39;21.80;;;11.02;;
29344;SDS011;16339;48.748;2.222;2023-04-03T07:35:07;21.35;;;11.00;;
29344;SDS011;16339;48.748;2.222;2023-04-03T07:37:36;15.32;;;9.80;;
29344;SDS011;16339;48.748;2.222;2023-04-03T07:40:06;19.13;;;9.88;;
29344;SDS011;16339;48.748;2.222;2023-04-03T07:42:35;18.25;;;10.43;;
29344;SDS011;16339;48.748;2.222;2023-04-03T07:45:04;17.77;;;9.95;;
29344;SDS011;16339;48.748;2.222;2023-04-03T07:47:36;18.27;;;9.65;;
29344;SDS011;16339;48.748;2.222;2023-04-03T07:50:06;16.27;;;8.80;;
29344;SDS011;16339;48.748;2.222;2023-04-03T07:52:36;16.67;;;9.65;;
29344;SDS011;16339;48.748;2.222;2023-04-03T07:55:05;16.60;;;8.80;;
29344;SDS011;16339;48.748;2.222;2023-04-03T07:57:34;17.73;;;9.35;;
29344;SDS011;16339;48.748;2.222;2023-04-03T08:00:03;15.35;;;8.68;;
29344;SDS011;16339;48.748;2.222;2023-04-03T08:02:36;16.67;;;9.38;;
29344;SDS011;16339;48.748;2.222;2023-04-03T08:05:05;13.88;;;8.68;;
29344;SDS011;16339;48.748;2.222;2023-04-03T08:07:36;16.05;;;8.73;;
29344;SDS011;16339;48.748;2.222;2023-04-03T08:10:05;17.67;;;9.88;;
29344;SDS011;16339;48.748;2.222;2023-04-03T08:12:34;15.70;;;9.13;;
29344;SDS011;16339;48.748;2.222;2023-04-03T08:15:05;14.70;;;8.82;;
29344;SDS011;16339;48.748;2.222;2023-04-03T08:17:37;16.20;;;8.37;;
29344;SDS011;16339;48.748;2.222;2023-04-03T08:20:07;15.00;;;8.63;;
29344;SDS011;16339;48.748;2.222;2023-04-03T08:22:37;18.13;;;8.95;;
29344;SDS011;16339;48.748;2.222;2023-04-03T08:25:07;17.60;;;8.43;;
29344;SDS011;16339;48.748;2.222;2023-04-03T08:27:36;15.38;;;8.63;;
29344;SDS011;16339;48.748;2.222;2023-04-03T08:30:05;11.95;;;7.03;;
29344;SDS011;16339;48.748;2.222;2023-04-03T08:32:38;12.40;;;6.73;;
29344;SDS011;16339;48.748;2.222;2023-04-03T08:35:07;13.75;;;8.35;;
29344;SDS011;16339;48.748;2.222;2023-04-03T08:37:37;11.77;;;6.65;;
29344;SDS011;16339;48.748;2.222;2023-04-03T08:40:07;7.75;;;5.47;;
29344;SDS011;16339;48.748;2.222;2023-04-03T08:42:43;9.25;;;5.43;;
29344;SDS011;16339;48.748;2.222;2023-04-03T08:45:20;13.05;;;5.93;;
29344;SDS011;16339;48.748;2.222;2023-04-03T08:47:57;9.88;;;5.32;;
29344;SDS011;16339;48.748;2.222;2023-04-03T08:50:33;7.57;;;5.32;;
29344;SDS011;16339;48.748;2.222;2023-04-03T08:53:10;8.35;;;5.53;;
29344;SDS011;16339;48.748;2.222;2023-04-03T08:55:43;9.73;;;5.03;;
29344;SDS011;16339;48.748;2.222;2023-04-03T08:58:15;9.57;;;4.68;;
29344;SDS011;16339;48.748;2.222;2023-04-03T09:00:47;11.23;;;4.70;;
29344;SDS011;16339;48.748;2.222;2023-04-03T09:03:22;7.35;;;4.88;;
29344;SDS011;16339;48.748;2.222;2023-04-03T09:05:53;10.32;;;4.55;;
29344;SDS011;16339;48.748;2.222;2023-04-03T09:08:25;7.07;;;4.75;;
29344;SDS011;16339;48.748;2.222;2023-04-03T09:11:03;8.43;;;4.30;;
29344;SDS011;16339;48.748;2.222;2023-04-03T09:13:39;6.40;;;4.40;;
29344;SDS011;16339;48.748;2.222;2023-04-03T09:16:20;5.20;;;3.78;;
29344;SDS011;16339;48.748;2.222;2023-04-03T09:19:01;9.68;;;3.95;;
29344;SDS011;16339;48.748;2.222;2023-04-03T09:21:36;5.45;;;4.05;;
29344;SDS011;16339;48.748;2.222;2023-04-03T09:24:07;8.02;;;4.50;;
29344;SDS011;16339;48.748;2.222;2023-04-03T09:26:39;8.13;;;3.90;;
29344;SDS011;16339;48.748;2.222;2023-04-03T09:29:14;7.38;;;4.47;;
29344;SDS011;16339;48.748;2.222;2023-04-03T09:31:46;6.80;;;4.13;;
29344;SDS011;16339;48.748;2.222;2023-04-03T09:34:20;7.53;;;4.10;;
29344;SDS011;16339;48.748;2.222;2023-04-03T09:36:52;7.20;;;3.67;;
29344;SDS011;16339;48.748;2.222;2023-04-03T09:39:22;6.88;;;3.88;;
29344;SDS011;16339;48.748;2.222;2023-04-03T09:42:03;6.20;;;4.20;;
29344;SDS011;16339;48.748;2.222;2023-04-03T09:44:33;8.38;;;3.90;;
29344;SDS011;16339;48.748;2.222;2023-04-03T09:47:17;9.02;;;4.03;;
29344;SDS011;16339;48.748;2.222;2023-04-03T09:49:50;11.75;;;4.10;;
29344;SDS011;16339;48.748;2.222;2023-04-03T09:52:35;9.55;;;4.40;;
29344;SDS011;16339;48.748;2.222;2023-04-03T09:55:06;8.82;;;4.05;;
29344;SDS011;16339;48.748;2.222;2023-04-03T09:57:36;6.45;;;3.97;;
29344;SDS011;16339;48.748;2.222;2023-04-03T10:00:05;5.70;;;3.65;;
29344;SDS011;16339;48.748;2.222;2023-04-03T10:02:48;9.20;;;3.67;;
29344;SDS011;16339;48.748;2.222;2023-04-03T10:05:29;7.75;;;4.03;;
29344;SDS011;16339;48.748;2.222;2023-04-03T10:08:08;8.27;;;3.95;;
29344;SDS011;16339;48.748;2.222;2023-04-03T10:10:39;9.02;;;4.43;;
29344;SDS011;16339;48.748;2.222;2023-04-03T10:13:12;7.40;;;3.95;;
29344;SDS011;16339;48.748;2.222;2023-04-03T10:15:44;6.60;;;3.60;;
29344;SDS011;16339;48.748;2.222;2023-04-03T10:18:19;7.50;;;4.05;;
29344;SDS011;16339;48.748;2.222;2023-04-03T10:21:03;9.32;;;3.90;;
29344;SDS011;16339;48.748;2.222;2023-04-03T10:23:38;13.00;;;3.65;;
29344;SDS011;16339;48.748;2.222;2023-04-03T10:26:13;12.38;;;4.38;;
29344;SDS011;16339;48.748;2.222;2023-04-03T10:28:51;18.55;;;3.90;;
29344;SDS011;16339;48.748;2.222;2023-04-03T10:31:25;5.15;;;3.40;;
29344;SDS011;16339;48.748;2.222;2023-04-03T10:34:03;8.57;;;4.22;;
29344;SDS011;16339;48.748;2.222;2023-04-03T10:36:46;6.22;;;4.07;;
29344;SDS011;16339;48.748;2.222;2023-04-03T10:39:23;5.45;;;4.00;;
29344;SDS011;16339;48.748;2.222;2023-04-03T10:42:00;5.47;;;3.83;;
29344;SDS011;16339;48.748;2.222;2023-04-03T10:44:36;6.78;;;4.00;;
29344;SDS011;16339;48.748;2.222;2023-04-03T10:47:15;8.15;;;4.07;;
29344;SDS011;16339;48.748;2.222;2023-04-03T10:49:50;8.48;;;3.90;;
29344;SDS011;16339;48.748;2.222;2023-04-03T10:52:30;5.13;;;3.30;;
29344;SDS011;16339;48.748;2.222;2023-04-03T10:55:20;7.82;;;3.72;;
29344;SDS011;16339;48.748;2.222;2023-04-03T10:57:57;5.85;;;3.83;;
29344;SDS011;16339;48.748;2.222;2023-04-03T11:00:30;4.85;;;3.17;;
29344;SDS011;16339;48.748;2.222;2023-04-03T11:03:05;5.53;;;3.50;;
29344;SDS011;16339;48.748;2.222;2023-04-03T11:05:40;9.93;;;4.07;;
29344;SDS011;16339;48.748;2.222;2023-04-03T11:08:15;9.13;;;3.80;;
29344;SDS011;16339;48.748;2.222;2023-04-03T11:10:53;6.78;;;3.50;;
29344;SDS011;16339;48.748;2.222;2023-04-03T11:13:27;6.53;;;3.28;;
29344;SDS011;16339;48.748;2.222;2023-04-03T11:16:01;6.72;;;3.20;;
29344;SDS011;16339;48.748;2.222;2023-04-03T11:18:35;9.57;;;3.35;;
29344;SDS011;16339;48.748;2.222;2023-04-03T11:21:11;5.63;;;3.22;;
29344;SDS011;16339;48.748;2.222;2023-04-03T11:23:49;8.30;;;3.85;;
29344;SDS011;16339;48.748;2.222;2023-04-03T11:26:20;8.45;;;3.97;;
29344;SDS011;16339;48.748;2.222;2023-04-03T11:28:53;6.78;;;3.53;;
29344;SDS011;16339;48.748;2.222;2023-04-03T11:31:31;6.93;;;3.83;;
29344;SDS011;16339;48.748;2.222;2023-04-03T11:34:10;6.68;;;3.83;;
29344;SDS011;16339;48.748;2.222;2023-04-03T11:36:47;10.60;;;4.20;;
29344;SDS011;16339;48.748;2.222;2023-04-03T11:39:22;6.93;;;3.90;;
29344;SDS011;16339;48.748;2.222;2023-04-03T11:41:53;7.00;;;3.80;;
29344;SDS011;16339;48.748;2.222;2023-04-03T11:44:29;7.53;;;3.63;;
29344;SDS011;16339;48.748;2.222;2023-04-03T11:47:04;8.23;;;3.88;;
29344;SDS011;16339;48.748;2.222;2023-04-03T11:58:27;4.80;;;2.88;;
29344;SDS011;16339;48.748;2.222;2023-04-03T12:01:01;7.05;;;3.30;;
29344;SDS011;16339;48.748;2.222;2023-04-03T12:03:55;6.95;;;3.33;;
29344;SDS011;16339;48.748;2.222;2023-04-03T12:06:48;6.07;;;3.45;;
29344;SDS011;16339;48.748;2.222;2023-04-03T12:09:24;6.25;;;3.13;;
29344;SDS011;16339;48.748;2.222;2023-04-03T12:14:54;6.88;;;3.38;;
29344;SDS011;16339;48.748;2.222;2023-04-03T12:17:23;9.95;;;3.13;;
29344;SDS011;16339;48.748;2.222;2023-04-03T12:19:56;5.97;;;3.17;;
29344;SDS011;16339;48.748;2.222;2023-04-03T12:22:24;8.40;;;3.30;;
29344;SDS011;16339;48.748;2.222;2023-04-03T12:24:53;16.88;;;3.35;;
29344;SDS011;16339;48.748;2.222;2023-04-03T12:36:26;7.28;;;2.90;;
29344;SDS011;16339;48.748;2.222;2023-04-03T12:39:02;4.88;;;3.05;;
29344;SDS011;16339;48.748;2.222;2023-04-03T12:41:43;7.18;;;2.50;;
29344;SDS011;16339;48.748;2.222;2023-04-03T12:44:21;9.00;;;2.40;;
29344;SDS011;16339;48.748;2.222;2023-04-03T12:47:02;5.93;;;2.50;;
29344;SDS011;16339;48.748;2.222;2023-04-03T12:49:47;5.60;;;2.70;;
29344;SDS011;16339;48.748;2.222;2023-04-03T12:52:22;4.53;;;2.90;;
29344;SDS011;16339;48.748;2.222;2023-04-03T12:55:00;7.28;;;2.70;;
29344;SDS011;16339;48.748;2.222;2023-04-03T12:57:30;6.57;;;2.80;;
29344;SDS011;16339;48.748;2.222;2023-04-03T13:00:00;7.55;;;2.88;;
29344;SDS011;16339;48.748;2.222;2023-04-03T13:02:48;5.20;;;2.28;;
29344;SDS011;16339;48.748;2.222;2023-04-03T13:05:18;3.92;;;2.10;;
29344;SDS011;16339;48.748;2.222;2023-04-03T13:07:52;6.32;;;2.47;;
29344;SDS011;16339;48.748;2.222;2023-04-03T13:10:24;4.22;;;2.10;;
29344;SDS011;16339;48.748;2.222;2023-04-03T13:12:53;5.55;;;2.70;;
29344;SDS011;16339;48.748;2.222;2023-04-03T13:15:24;8.67;;;2.50;;
29344;SDS011;16339;48.748;2.222;2023-04-03T13:17:54;8.48;;;2.50;;
29344;SDS011;16339;48.748;2.222;2023-04-03T13:20:24;3.65;;;2.03;;
29344;SDS011;16339;48.748;2.222;2023-04-03T13:23:00;4.22;;;2.30;;
29344;SDS011;16339;48.748;2.222;2023-04-03T13:25:32;3.50;;;2.00;;
29344;SDS011;16339;48.748;2.222;2023-04-03T13:28:05;6.78;;;2.20;;
29344;SDS011;16339;48.748;2.222;2023-04-03T13:30:37;4.90;;;2.28;;
29344;SDS011;16339;48.748;2.222;2023-04-03T13:33:18;5.40;;;2.17;;
29344;SDS011;16339;48.748;2.222;2023-04-03T13:35:54;6.75;;;2.50;;
29344;SDS011;16339;48.748;2.222;2023-04-03T13:38:28;4.05;;;2.22;;
29344;SDS011;16339;48.748;2.222;2023-04-03T13:40:59;5.95;;;2.42;;
29344;SDS011;16339;48.748;2.222;2023-04-03T13:43:31;7.15;;;2.67;;
29344;SDS011;16339;48.748;2.222;2023-04-03T13:46:02;5.10;;;2.55;;
29344;SDS011;16339;48.748;2.222;2023-04-03T13:48:50;4.80;;;2.30;;
29344;SDS011;16339;48.748;2.222;2023-04-03T13:51:21;4.13;;;2.70;;
29344;SDS011;16339;48.748;2.222;2023-04-03T13:53:55;4.80;;;3.00;;
29344;SDS011;16339;48.748;2.222;2023-04-03T13:56:27;8.48;;;3.03;;
29344;SDS011;16339;48.748;2.222;2023-04-03T13:59:03;6.15;;;2.30;;
29344;SDS011;16339;48.748;2.222;2023-04-03T14:01:48;5.68;;;2.67;;
29344;SDS011;16339;48.748;2.222;2023-04-03T14:06:48;7.32;;;2.30;;
29344;SDS011;16339;48.748;2.222;2023-04-03T14:09:20;9.98;;;4.95;;
29344;SDS011;16339;48.748;2.222;2023-04-03T14:11:52;6.55;;;2.50;;
29344;SDS011;16339;48.748;2.222;2023-04-03T14:14:26;6.35;;;2.65;;
29344;SDS011;16339;48.748;2.222;2023-04-03T14:16:59;5.10;;;2.38;;
29344;SDS011;16339;48.748;2.222;2023-04-03T14:19:30;5.10;;;2.60;;
29344;SDS011;16339;48.748;2.222;2023-04-03T14:22:00;8.13;;;3.08;;
29344;SDS011;16339;48.748;2.222;2023-04-03T14:24:41;9.05;;;3.45;;
29344;SDS011;16339;48.748;2.222;2023-04-03T14:27:13;5.18;;;2.72;;
29344;SDS011;16339;48.748;2.222;2023-04-03T14:29:45;4.78;;;2.30;;
29344;SDS011;16339;48.748;2.222;2023-04-03T14:32:15;13.55;;;2.92;;
29344;SDS011;16339;48.748;2.222;2023-04-03T14:34:44;8.80;;;2.70;;
29344;SDS011;16339;48.748;2.222;2023-04-03T14:37:17;5.03;;;2.47;;
29344;SDS011;16339;48.748;2.222;2023-04-03T14:39:50;4.13;;;2.42;;
29344;SDS011;16339;48.748;2.222;2023-04-03T14:42:21;7.88;;;2.83;;
29344;SDS011;16339;48.748;2.222;2023-04-03T14:47:21;7.25;;;2.30;;
29344;SDS011;16339;48.748;2.222;2023-04-03T14:49:53;7.60;;;2.15;;
29344;SDS011;16339;48.748;2.222;2023-04-03T14:52:23;3.28;;;2.20;;
29344;SDS011;16339;48.748;2.222;2023-04-03T14:57:25;5.40;;;2.72;;
29344;SDS011;16339;48.748;2.222;2023-04-03T14:59:56;6.18;;;2.53;;
29344;SDS011;16339;48.748;2.222;2023-04-03T15:02:27;3.60;;;2.30;;
29344;SDS011;16339;48.748;2.222;2023-04-03T15:04:57;6.18;;;2.72;;
29344;SDS011;16339;48.748;2.222;2023-04-03T15:07:29;10.33;;;2.70;;
29344;SDS011;16339;48.748;2.222;2023-04-03T15:10:02;6.35;;;2.28;;
29344;SDS011;16339;48.748;2.222;2023-04-03T15:12:42;4.35;;;2.13;;
29344;SDS011;16339;48.748;2.222;2023-04-03T15:15:11;18.83;;;7.60;;
29344;SDS011;16339;48.748;2.222;2023-04-03T15:17:40;7.55;;;2.70;;
29344;SDS011;16339;48.748;2.222;2023-04-03T15:20:11;3.70;;;2.10;;
29344;SDS011;16339;48.748;2.222;2023-04-03T15:22:42;6.03;;;2.13;;
29344;SDS011;16339;48.748;2.222;2023-04-03T15:25:13;4.85;;;2.58;;
29344;SDS011;16339;48.748;2.222;2023-04-03T15:27:43;6.00;;;2.47;;
29344;SDS011;16339;48.748;2.222;2023-04-03T15:30:14;6.05;;;2.60;;
29344;SDS011;16339;48.748;2.222;2023-04-03T15:32:44;5.35;;;2.33;;
29344;SDS011;16339;48.748;2.222;2023-04-03T15:35:13;4.22;;;2.20;;
29344;SDS011;16339;48.748;2.222;2023-04-03T15:37:42;6.97;;;3.75;;
29344;SDS011;16339;48.748;2.222;2023-04-03T15:40:13;4.03;;;2.42;;
29344;SDS011;16339;48.748;2.222;2023-04-03T15:42:42;9.30;;;2.70;;